SLET/SRZ METAR and TAF weather

Enter ICAO airport designator
Station Type Date Time Source
SLET METAR 2020/09/19 18:00 UTC NOAA

SLET 191800Z 32013G24KT 5000 FU NSC 34/19 Q1010


Station Type Date Time Source
SLET Decoded METAR 2020/09/19 18:00 UTC NOAA

Santa Cruz / El Trompillo, Bolivia (SLET) 17-48S 063-11W 414M
Sep 19, 2020 - 02:00 PM EDT / 2020.09.19 1800 UTC
Wind: from the NW (320 degrees) at 15 MPH (13 KT) gusting to 28 MPH (24 KT):0
Visibility: 3 mile(s):0
Weather: smoke
Temperature: 93 F (34 C)
Heat index: 95.9 F (35.5 C):1
Dew Point: 66 F (19 C)
Relative Humidity: 41%
Pressure (altimeter): 29.83 in. Hg (1010 hPa)
ob: SLET 191800Z 32013G24KT 5000 FU NSC 34/19 Q1010
cycle: 18

Station Type Date Time Source
SLET TAF 2020/09/19 18:50 UTC NOAA

TAF SLET 191650Z 1918/2018 35012G23KT 5000 FU SCT020 TX35/1919Z TN21/2010Z PROB30
TEMPO 2002/2006 18015G25KT 8000 SHRA BKN013 FEW027TCU
BECMG 2012/2015 18014KT 5000 FU SCT020 BKN070

Example: see airport list